sensor_id;sensor_type;location;lat;lon;timestamp;pressure;altitude;pressure_sealevel;temperature;humidity
6349;BME280;3207;42.648;23.406;2023-05-07T00:00:18;99973.06;;;21.05;71.88
6349;BME280;3207;42.648;23.406;2023-05-07T00:02:57;99971.28;;;20.98;72.13
6349;BME280;3207;42.648;23.406;2023-05-07T00:05:23;99966.53;;;20.93;72.58
6349;BME280;3207;42.648;23.406;2023-05-07T00:07:50;99965.69;;;20.93;72.16
6349;BME280;3207;42.648;23.406;2023-05-07T00:10:18;99964.78;;;21.00;71.74
6349;BME280;3207;42.648;23.406;2023-05-07T00:12:45;99963.22;;;20.91;72.46
6349;BME280;3207;42.648;23.406;2023-05-07T00:15:11;99886.34;;;20.52;71.70
6349;BME280;3207;42.648;23.406;2023-05-07T00:17:38;99963.22;;;20.91;72.18
6349;BME280;3207;42.648;23.406;2023-05-07T00:20:10;99971.53;;;20.88;71.98
6349;BME280;3207;42.648;23.406;2023-05-07T00:22:37;99956.47;;;20.66;72.74
6349;BME280;3207;42.648;23.406;2023-05-07T00:25:05;99974.34;;;20.72;72.93
6349;BME280;3207;42.648;23.406;2023-05-07T00:27:32;99968.38;;;20.70;72.94
6349;BME280;3207;42.648;23.406;2023-05-07T00:29:59;99978.41;;;20.60;74.10
6349;BME280;3207;42.648;23.406;2023-05-07T00:32:29;99967.06;;;20.43;74.81
6349;BME280;3207;42.648;23.406;2023-05-07T00:34:55;99964.75;;;20.40;74.80
6349;BME280;3207;42.648;23.406;2023-05-07T00:37:23;99968.50;;;20.23;76.14
6349;BME280;3207;42.648;23.406;2023-05-07T00:39:50;99968.44;;;20.00;77.60
6349;BME280;3207;42.648;23.406;2023-05-07T00:42:17;99968.34;;;20.16;76.38
6349;BME280;3207;42.648;23.406;2023-05-07T00:44:44;99968.06;;;20.11;76.95
6349;BME280;3207;42.648;23.406;2023-05-07T00:47:11;99962.25;;;20.07;76.95
6349;BME280;3207;42.648;23.406;2023-05-07T00:49:43;99973.22;;;20.04;77.32
6349;BME280;3207;42.648;23.406;2023-05-07T00:52:11;99975.19;;;20.02;77.31
6349;BME280;3207;42.648;23.406;2023-05-07T00:54:42;99968.06;;;20.03;77.01
6349;BME280;3207;42.648;23.406;2023-05-07T00:57:09;99971.88;;;20.08;76.68
6349;BME280;3207;42.648;23.406;2023-05-07T00:59:37;99967.91;;;20.04;76.65
6349;BME280;3207;42.648;23.406;2023-05-07T01:02:05;99968.44;;;19.92;77.71
6349;BME280;3207;42.648;23.406;2023-05-07T01:04:32;99971.31;;;19.90;77.71
6349;BME280;3207;42.648;23.406;2023-05-07T01:06:59;99975.06;;;19.96;77.25
6349;BME280;3207;42.648;23.406;2023-05-07T01:09:28;99970.59;;;19.96;77.15
6349;BME280;3207;42.648;23.406;2023-05-07T01:11:57;99982.75;;;19.91;77.81
6349;BME280;3207;42.648;23.406;2023-05-07T01:14:25;99987.34;;;19.97;76.66
6349;BME280;3207;42.648;23.406;2023-05-07T01:16:55;99980.72;;;20.01;76.57
6349;BME280;3207;42.648;23.406;2023-05-07T01:19:22;99988.97;;;20.06;76.07
6349;BME280;3207;42.648;23.406;2023-05-07T01:21:59;99989.50;;;20.01;76.64
6349;BME280;3207;42.648;23.406;2023-05-07T01:24:30;99987.19;;;19.98;76.56
6349;BME280;3207;42.648;23.406;2023-05-07T01:27:07;99997.97;;;19.97;76.26
6349;BME280;3207;42.648;23.406;2023-05-07T01:29:34;99999.28;;;20.01;74.90
6349;BME280;3207;42.648;23.406;2023-05-07T01:32:10;99984.06;;;19.87;74.61
6349;BME280;3207;42.648;23.406;2023-05-07T01:34:39;99991.06;;;19.80;74.63
6349;BME280;3207;42.648;23.406;2023-05-07T01:37:07;99995.09;;;19.67;74.83
6349;BME280;3207;42.648;23.406;2023-05-07T01:39:37;99992.91;;;19.71;74.81
6349;BME280;3207;42.648;23.406;2023-05-07T01:42:13;99984.78;;;19.72;73.83
6349;BME280;3207;42.648;23.406;2023-05-07T01:44:40;99990.59;;;19.76;73.82
6349;BME280;3207;42.648;23.406;2023-05-07T01:47:16;99998.75;;;19.58;74.60
6349;BME280;3207;42.648;23.406;2023-05-07T01:49:43;99996.94;;;19.51;75.01
6349;BME280;3207;42.648;23.406;2023-05-07T01:52:10;99998.75;;;19.42;75.14
6349;BME280;3207;42.648;23.406;2023-05-07T01:54:39;100001.75;;;19.31;75.40
6349;BME280;3207;42.648;23.406;2023-05-07T01:57:06;99996.44;;;19.39;74.98
6349;BME280;3207;42.648;23.406;2023-05-07T01:59:33;99991.63;;;19.43;74.10
6349;BME280;3207;42.648;23.406;2023-05-07T02:02:05;99998.09;;;19.40;73.65
6349;BME280;3207;42.648;23.406;2023-05-07T02:04:32;99993.97;;;19.29;74.09
6349;BME280;3207;42.648;23.406;2023-05-07T02:06:59;99999.13;;;19.23;73.86
6349;BME280;3207;42.648;23.406;2023-05-07T02:09:35;99992.34;;;18.96;75.84
6349;BME280;3207;42.648;23.406;2023-05-07T02:12:09;99986.88;;;18.89;76.40
6349;BME280;3207;42.648;23.406;2023-05-07T02:14:36;99993.66;;;19.00;75.80
6349;BME280;3207;42.648;23.406;2023-05-07T02:17:03;99989.19;;;18.92;76.42
6349;BME280;3207;42.648;23.406;2023-05-07T02:19:29;99993.16;;;18.88;76.58
6349;BME280;3207;42.648;23.406;2023-05-07T02:21:56;99989.19;;;18.84;77.25
6349;BME280;3207;42.648;23.406;2023-05-07T02:24:27;99984.91;;;18.83;77.35
6349;BME280;3207;42.648;23.406;2023-05-07T02:26:57;99991.66;;;18.86;77.47
6349;BME280;3207;42.648;23.406;2023-05-07T02:29:25;99985.88;;;18.82;77.63
6349;BME280;3207;42.648;23.406;2023-05-07T02:31:52;99985.38;;;18.79;78.00
6349;BME280;3207;42.648;23.406;2023-05-07T02:34:19;99977.25;;;18.88;77.04
6349;BME280;3207;42.648;23.406;2023-05-07T02:36:46;99979.75;;;18.90;77.42
6349;BME280;3207;42.648;23.406;2023-05-07T02:39:13;99982.56;;;18.88;77.42
6349;BME280;3207;42.648;23.406;2023-05-07T02:41:47;99974.28;;;18.67;78.45
6349;BME280;3207;42.648;23.406;2023-05-07T02:44:14;99976.88;;;18.51;79.79
6349;BME280;3207;42.648;23.406;2023-05-07T02:46:42;99971.91;;;18.48;80.21
6349;BME280;3207;42.648;23.406;2023-05-07T02:49:09;99961.84;;;18.59;79.31
6349;BME280;3207;42.648;23.406;2023-05-07T02:51:36;99957.84;;;18.47;79.56
6349;BME280;3207;42.648;23.406;2023-05-07T02:54:03;99963.28;;;18.38;79.61
6349;BME280;3207;42.648;23.406;2023-05-07T02:56:30;99964.28;;;18.45;79.41
6349;BME280;3207;42.648;23.406;2023-05-07T02:58:56;99968.94;;;18.43;79.62
6349;BME280;3207;42.648;23.406;2023-05-07T03:01:26;99964.44;;;18.35;80.36
6349;BME280;3207;42.648;23.406;2023-05-07T03:03:55;99976.19;;;18.41;79.86
6349;BME280;3207;42.648;23.406;2023-05-07T03:06:22;99968.91;;;18.35;80.18
6349;BME280;3207;42.648;23.406;2023-05-07T03:08:49;99973.88;;;18.38;80.34
6349;BME280;3207;42.648;23.406;2023-05-07T03:11:16;99983.09;;;18.25;80.66
6349;BME280;3207;42.648;23.406;2023-05-07T03:13:42;99974.69;;;18.30;80.58
6349;BME280;3207;42.648;23.406;2023-05-07T03:16:09;99975.38;;;18.32;80.73
6349;BME280;3207;42.648;23.406;2023-05-07T03:18:42;99977.50;;;18.28;81.14
6349;BME280;3207;42.648;23.406;2023-05-07T03:21:16;99980.47;;;18.34;80.99
6349;BME280;3207;42.648;23.406;2023-05-07T03:23:43;99981.31;;;18.34;80.90
6349;BME280;3207;42.648;23.406;2023-05-07T03:26:10;99991.41;;;18.39;80.55
6349;BME280;3207;42.648;23.406;2023-05-07T03:28:37;99986.78;;;18.41;80.37
6349;BME280;3207;42.648;23.406;2023-05-07T03:31:03;99993.75;;;18.42;80.21
6349;BME280;3207;42.648;23.406;2023-05-07T03:33:34;99998.06;;;18.43;80.33
6349;BME280;3207;42.648;23.406;2023-05-07T03:36:07;99995.72;;;18.48;79.88
6349;BME280;3207;42.648;23.406;2023-05-07T03:38:35;99992.09;;;18.41;80.09
6349;BME280;3207;42.648;23.406;2023-05-07T03:41:05;100000.72;;;18.51;78.49
6349;BME280;3207;42.648;23.406;2023-05-07T03:43:31;100010.31;;;18.52;78.63
6349;BME280;3207;42.648;23.406;2023-05-07T03:45:58;100009.28;;;18.45;79.04
6349;BME280;3207;42.648;23.406;2023-05-07T03:48:25;100009.28;;;18.45;79.13
6349;BME280;3207;42.648;23.406;2023-05-07T03:50:52;100007.00;;;18.50;78.53
6349;BME280;3207;42.648;23.406;2023-05-07T03:53:18;100006.00;;;18.51;78.61
6349;BME280;3207;42.648;23.406;2023-05-07T03:55:50;100006.00;;;18.43;78.87
6349;BME280;3207;42.648;23.406;2023-05-07T03:58:17;99998.22;;;18.41;78.73
6349;BME280;3207;42.648;23.406;2023-05-07T04:00:43;99995.53;;;18.33;78.83
6349;BME280;3207;42.648;23.406;2023-05-07T04:03:11;100010.09;;;18.29;79.23
6349;BME280;3207;42.648;23.406;2023-05-07T04:05:38;100012.41;;;18.32;79.21
6349;BME280;3207;42.648;23.406;2023-05-07T04:08:04;100014.84;;;18.25;79.88
6349;BME280;3207;42.648;23.406;2023-05-07T04:10:31;100004.25;;;18.17;80.95
6349;BME280;3207;42.648;23.406;2023-05-07T04:13:03;100014.72;;;18.35;80.45
6349;BME280;3207;42.648;23.406;2023-05-07T04:15:30;100015.06;;;18.32;81.04
6349;BME280;3207;42.648;23.406;2023-05-07T04:17:56;100004.94;;;18.27;80.13
6349;BME280;3207;42.648;23.406;2023-05-07T04:20:23;100027.78;;;18.37;79.73
6349;BME280;3207;42.648;23.406;2023-05-07T04:22:58;100019.19;;;18.35;78.78
6349;BME280;3207;42.648;23.406;2023-05-07T04:25:24;100024.81;;;18.32;78.32
6349;BME280;3207;42.648;23.406;2023-05-07T04:27:52;100025.75;;;18.22;78.93
6349;BME280;3207;42.648;23.406;2023-05-07T04:30:20;99974.06;;;17.94;78.46
6349;BME280;3207;42.648;23.406;2023-05-07T04:32:47;100034.72;;;18.29;78.71
6349;BME280;3207;42.648;23.406;2023-05-07T04:35:14;100032.91;;;18.22;79.45
6349;BME280;3207;42.648;23.406;2023-05-07T04:37:41;100043.38;;;18.40;78.11
6349;BME280;3207;42.648;23.406;2023-05-07T04:40:11;100051.31;;;18.40;78.61
6349;BME280;3207;42.648;23.406;2023-05-07T04:42:37;100056.00;;;18.54;78.32
6349;BME280;3207;42.648;23.406;2023-05-07T04:45:05;100061.19;;;18.63;77.87
6349;BME280;3207;42.648;23.406;2023-05-07T04:47:33;100057.25;;;18.84;76.88
6349;BME280;3207;42.648;23.406;2023-05-07T04:50:02;100066.69;;;19.02;75.61
6349;BME280;3207;42.648;23.406;2023-05-07T04:52:29;100058.94;;;19.17;75.21
6349;BME280;3207;42.648;23.406;2023-05-07T04:54:58;100070.50;;;19.32;74.65
6349;BME280;3207;42.648;23.406;2023-05-07T04:57:25;100070.69;;;19.47;73.95
6349;BME280;3207;42.648;23.406;2023-05-07T04:59:52;100071.84;;;19.61;73.20
6349;BME280;3207;42.648;23.406;2023-05-07T05:02:19;100076.16;;;19.70;72.83
6349;BME280;3207;42.648;23.406;2023-05-07T05:04:51;100071.28;;;19.82;72.40
6349;BME280;3207;42.648;23.406;2023-05-07T05:07:18;100073.28;;;19.88;71.73
6349;BME280;3207;42.648;23.406;2023-05-07T05:09:45;100075.91;;;19.96;71.05
6349;BME280;3207;42.648;23.406;2023-05-07T05:12:12;100073.91;;;20.06;71.00
6349;BME280;3207;42.648;23.406;2023-05-07T05:14:38;100071.53;;;20.19;70.69
6349;BME280;3207;42.648;23.406;2023-05-07T05:17:05;100067.88;;;20.20;70.36
6349;BME280;3207;42.648;23.406;2023-05-07T05:19:32;100008.28;;;19.84;69.97
6349;BME280;3207;42.648;23.406;2023-05-07T05:22:00;100080.09;;;20.37;70.16
6349;BME280;3207;42.648;23.406;2023-05-07T05:24:29;100079.22;;;20.53;69.23
6349;BME280;3207;42.648;23.406;2023-05-07T05:26:56;100067.53;;;20.62;68.98
6349;BME280;3207;42.648;23.406;2023-05-07T05:29:23;100072.75;;;20.78;69.07
6349;BME280;3207;42.648;23.406;2023-05-07T05:31:49;100073.56;;;20.79;68.60
6349;BME280;3207;42.648;23.406;2023-05-07T05:34:16;100074.31;;;20.96;68.20
6349;BME280;3207;42.648;23.406;2023-05-07T05:36:45;100050.91;;;20.91;67.77
6349;BME280;3207;42.648;23.406;2023-05-07T05:39:13;100082.34;;;21.18;67.23
6349;BME280;3207;42.648;23.406;2023-05-07T05:41:48;100079.53;;;21.35;66.54
6349;BME280;3207;42.648;23.406;2023-05-07T05:44:15;100076.78;;;21.43;66.28
6349;BME280;3207;42.648;23.406;2023-05-07T05:46:42;100074.03;;;21.51;66.10
6349;BME280;3207;42.648;23.406;2023-05-07T05:49:08;100078.66;;;21.57;65.82
6349;BME280;3207;42.648;23.406;2023-05-07T05:51:35;100078.66;;;21.57;66.03
6349;BME280;3207;42.648;23.406;2023-05-07T05:54:02;100075.25;;;21.63;65.78
6349;BME280;3207;42.648;23.406;2023-05-07T05:56:31;100086.75;;;21.64;66.15
6349;BME280;3207;42.648;23.406;2023-05-07T05:58:58;100077.56;;;21.66;65.67
6349;BME280;3207;42.648;23.406;2023-05-07T06:01:25;100087.13;;;21.75;65.52
6349;BME280;3207;42.648;23.406;2023-05-07T06:03:52;100078.94;;;21.62;65.79
6349;BME280;3207;42.648;23.406;2023-05-07T06:06:18;100081.91;;;21.82;65.27
6349;BME280;3207;42.648;23.406;2023-05-07T06:08:45;100084.03;;;21.86;64.94
6349;BME280;3207;42.648;23.406;2023-05-07T06:11:12;100083.06;;;22.02;64.33
6349;BME280;3207;42.648;23.406;2023-05-07T06:13:43;100074.50;;;22.07;64.15
6349;BME280;3207;42.648;23.406;2023-05-07T06:16:10;100083.56;;;21.98;64.36
6349;BME280;3207;42.648;23.406;2023-05-07T06:18:37;100079.59;;;21.93;64.69
6349;BME280;3207;42.648;23.406;2023-05-07T06:21:04;100078.53;;;22.32;63.70
6349;BME280;3207;42.648;23.406;2023-05-07T06:23:31;100079.97;;;22.49;63.08
6349;BME280;3207;42.648;23.406;2023-05-07T06:25:58;100072.03;;;22.71;62.59
6349;BME280;3207;42.648;23.406;2023-05-07T06:28:24;100067.06;;;22.82;62.28
6349;BME280;3207;42.648;23.406;2023-05-07T06:30:53;100076.66;;;22.77;62.13
6349;BME280;3207;42.648;23.406;2023-05-07T06:33:19;100079.63;;;22.88;61.82
6349;BME280;3207;42.648;23.406;2023-05-07T06:35:46;100080.72;;;22.94;61.35
6349;BME280;3207;42.648;23.406;2023-05-07T06:38:13;100068.34;;;23.08;61.36
6349;BME280;3207;42.648;23.406;2023-05-07T06:40:40;100074.19;;;23.18;61.04
6349;BME280;3207;42.648;23.406;2023-05-07T06:43:09;100077.88;;;22.95;61.79
6349;BME280;3207;42.648;23.406;2023-05-07T06:45:36;100075.34;;;23.09;61.53
6349;BME280;3207;42.648;23.406;2023-05-07T06:48:05;100080.06;;;23.34;61.59
6349;BME280;3207;42.648;23.406;2023-05-07T06:50:39;100084.84;;;23.60;60.45
6349;BME280;3207;42.648;23.406;2023-05-07T06:53:06;100085.59;;;23.54;60.64
6349;BME280;3207;42.648;23.406;2023-05-07T06:55:33;100081.28;;;23.53;60.23
6349;BME280;3207;42.648;23.406;2023-05-07T06:57:59;100080.31;;;23.61;60.59
6349;BME280;3207;42.648;23.406;2023-05-07T07:00:29;100076.00;;;23.94;59.49
6349;BME280;3207;42.648;23.406;2023-05-07T07:02:56;100069.50;;;24.03;58.87
6349;BME280;3207;42.648;23.406;2023-05-07T07:05:28;100079.75;;;24.00;59.10
6349;BME280;3207;42.648;23.406;2023-05-07T07:07:55;100082.63;;;24.33;58.11
6349;BME280;3207;42.648;23.406;2023-05-07T07:10:22;100083.09;;;24.43;57.37
6349;BME280;3207;42.648;23.406;2023-05-07T07:12:50;100076.41;;;24.80;56.20
6349;BME280;3207;42.648;23.406;2023-05-07T07:15:17;100079.75;;;24.89;55.66
6349;BME280;3207;42.648;23.406;2023-05-07T07:17:46;100069.91;;;25.02;55.08
6349;BME280;3207;42.648;23.406;2023-05-07T07:20:13;100076.31;;;25.08;54.85
6349;BME280;3207;42.648;23.406;2023-05-07T07:22:41;100072.41;;;25.30;53.79
6349;BME280;3207;42.648;23.406;2023-05-07T07:25:08;100076.13;;;25.36;53.92
6349;BME280;3207;42.648;23.406;2023-05-07T07:27:36;100084.38;;;25.41;53.47
6349;BME280;3207;42.648;23.406;2023-05-07T07:30:06;100066.22;;;25.49;53.00
6349;BME280;3207;42.648;23.406;2023-05-07T07:32:33;100066.81;;;25.12;54.27
6349;BME280;3207;42.648;23.406;2023-05-07T07:35:00;100075.47;;;25.14;53.61
6349;BME280;3207;42.648;23.406;2023-05-07T07:37:27;100069.13;;;25.28;53.96
6349;BME280;3207;42.648;23.406;2023-05-07T07:39:56;100068.28;;;25.47;53.14
6349;BME280;3207;42.648;23.406;2023-05-07T07:42:23;100070.16;;;25.67;52.64
6349;BME280;3207;42.648;23.406;2023-05-07T07:44:50;100069.88;;;26.01;51.58
6349;BME280;3207;42.648;23.406;2023-05-07T07:47:16;100070.72;;;26.02;51.58
6349;BME280;3207;42.648;23.406;2023-05-07T07:49:43;100076.22;;;26.27;50.72
6349;BME280;3207;42.648;23.406;2023-05-07T07:52:10;100076.16;;;26.40;50.74
6349;BME280;3207;42.648;23.406;2023-05-07T07:54:41;100084.06;;;26.79;49.03
6349;BME280;3207;42.648;23.406;2023-05-07T07:57:09;100072.81;;;26.95;48.76
6349;BME280;3207;42.648;23.406;2023-05-07T07:59:36;100081.63;;;27.03;48.27
6349;BME280;3207;42.648;23.406;2023-05-07T08:02:03;100076.53;;;27.51;46.82
6349;BME280;3207;42.648;23.406;2023-05-07T08:04:33;100063.25;;;27.62;45.98
6349;BME280;3207;42.648;23.406;2023-05-07T08:07:00;100055.06;;;27.94;45.44
6349;BME280;3207;42.648;23.406;2023-05-07T08:09:27;100086.19;;;28.56;44.68
6349;BME280;3207;42.648;23.406;2023-05-07T08:11:54;100066.97;;;28.71;43.51
6349;BME280;3207;42.648;23.406;2023-05-07T08:14:22;100064.19;;;28.48;43.38
6349;BME280;3207;42.648;23.406;2023-05-07T08:16:49;100062.88;;;28.68;43.51
6349;BME280;3207;42.648;23.406;2023-05-07T08:19:16;100071.00;;;28.80;42.93
6349;BME280;3207;42.648;23.406;2023-05-07T08:21:42;100071.06;;;29.03;42.60
6349;BME280;3207;42.648;23.406;2023-05-07T08:24:09;100074.06;;;28.65;41.94
6349;BME280;3207;42.648;23.406;2023-05-07T08:26:37;100073.91;;;28.49;41.76
6349;BME280;3207;42.648;23.406;2023-05-07T08:29:04;100063.50;;;28.16;42.28
6349;BME280;3207;42.648;23.406;2023-05-07T08:31:32;100060.78;;;27.97;42.66
6349;BME280;3207;42.648;23.406;2023-05-07T08:33:59;100071.41;;;28.11;43.29
6349;BME280;3207;42.648;23.406;2023-05-07T08:36:26;100054.56;;;27.60;44.25
6349;BME280;3207;42.648;23.406;2023-05-07T08:38:53;100054.44;;;28.10;44.04
6349;BME280;3207;42.648;23.406;2023-05-07T08:41:20;100099.50;;;28.15;43.42
6349;BME280;3207;42.648;23.406;2023-05-07T08:43:48;100069.56;;;28.29;43.96
6349;BME280;3207;42.648;23.406;2023-05-07T08:46:18;100066.22;;;28.34;43.44
6349;BME280;3207;42.648;23.406;2023-05-07T08:48:47;100102.34;;;28.20;44.69
6349;BME280;3207;42.648;23.406;2023-05-07T08:51:17;100063.00;;;28.25;44.19
6349;BME280;3207;42.648;23.406;2023-05-07T08:53:45;100064.66;;;28.26;43.92
6349;BME280;3207;42.648;23.406;2023-05-07T08:56:14;100058.84;;;27.43;46.23
6349;BME280;3207;42.648;23.406;2023-05-07T08:58:41;100044.59;;;28.04;44.46
6349;BME280;3207;42.648;23.406;2023-05-07T09:01:10;100050.72;;;28.11;44.19
6349;BME280;3207;42.648;23.406;2023-05-07T09:03:39;100057.84;;;28.05;45.00
6349;BME280;3207;42.648;23.406;2023-05-07T09:06:07;100055.38;;;28.22;44.28
6349;BME280;3207;42.648;23.406;2023-05-07T09:08:48;100060.75;;;28.22;44.64
6349;BME280;3207;42.648;23.406;2023-05-07T09:11:16;100044.53;;;28.11;43.28
6349;BME280;3207;42.648;23.406;2023-05-07T09:13:42;100050.66;;;27.99;44.15
6349;BME280;3207;42.648;23.406;2023-05-07T09:16:11;100062.69;;;28.33;42.20
6349;BME280;3207;42.648;23.406;2023-05-07T09:18:41;100064.94;;;28.66;41.87
6349;BME280;3207;42.648;23.406;2023-05-07T09:21:11;100057.56;;;28.62;41.84
6349;BME280;3207;42.648;23.406;2023-05-07T09:23:38;100061.88;;;28.81;41.79
6349;BME280;3207;42.648;23.406;2023-05-07T09:26:06;100050.25;;;29.10;40.73
6349;BME280;3207;42.648;23.406;2023-05-07T09:28:40;100060.97;;;28.87;40.78
6349;BME280;3207;42.648;23.406;2023-05-07T09:31:08;100046.78;;;27.52;43.37
6349;BME280;3207;42.648;23.406;2023-05-07T09:33:35;100049.53;;;28.07;42.24
6349;BME280;3207;42.648;23.406;2023-05-07T09:36:05;100046.88;;;28.55;41.09
6349;BME280;3207;42.648;23.406;2023-05-07T09:38:40;100050.69;;;28.66;41.25
6349;BME280;3207;42.648;23.406;2023-05-07T09:41:09;100047.00;;;28.49;41.25
6349;BME280;3207;42.648;23.406;2023-05-07T09:43:37;100042.81;;;28.16;41.73
6349;BME280;3207;42.648;23.406;2023-05-07T09:46:12;100046.25;;;28.41;41.94
6349;BME280;3207;42.648;23.406;2023-05-07T09:48:41;100042.59;;;28.66;41.42
6349;BME280;3207;42.648;23.406;2023-05-07T09:51:16;100042.59;;;28.66;41.24
6349;BME280;3207;42.648;23.406;2023-05-07T09:53:47;100041.53;;;28.85;40.34
6349;BME280;3207;42.648;23.406;2023-05-07T09:56:14;100046.34;;;28.95;40.16
6349;BME280;3207;42.648;23.406;2023-05-07T09:58:43;100046.91;;;28.85;40.08
6349;BME280;3207;42.648;23.406;2023-05-07T10:01:12;100037.63;;;29.11;39.55
6349;BME280;3207;42.648;23.406;2023-05-07T10:03:41;100034.59;;;29.31;38.98
6349;BME280;3207;42.648;23.406;2023-05-07T10:06:09;100030.66;;;29.45;39.21
6349;BME280;3207;42.648;23.406;2023-05-07T10:08:36;100043.03;;;29.93;37.94
6349;BME280;3207;42.648;23.406;2023-05-07T10:11:05;100018.47;;;29.54;38.20
6349;BME280;3207;42.648;23.406;2023-05-07T10:13:33;100032.69;;;30.13;38.23
6349;BME280;3207;42.648;23.406;2023-05-07T10:16:07;100026.09;;;30.20;37.78
6349;BME280;3207;42.648;23.406;2023-05-07T10:18:34;100036.38;;;30.35;37.66
6349;BME280;3207;42.648;23.406;2023-05-07T10:21:11;100029.94;;;29.61;38.77
6349;BME280;3207;42.648;23.406;2023-05-07T10:23:50;100029.81;;;29.68;39.19
6349;BME280;3207;42.648;23.406;2023-05-07T10:26:20;100030.25;;;29.88;38.83
6349;BME280;3207;42.648;23.406;2023-05-07T10:28:52;100047.84;;;30.02;38.75
6349;BME280;3207;42.648;23.406;2023-05-07T10:31:37;100020.38;;;30.45;38.40
6349;BME280;3207;42.648;23.406;2023-05-07T10:34:15;100042.97;;;30.68;37.46
6349;BME280;3207;42.648;23.406;2023-05-07T10:36:44;100035.63;;;30.80;36.74
6349;BME280;3207;42.648;23.406;2023-05-07T10:39:11;100028.19;;;30.70;37.18
6349;BME280;3207;42.648;23.406;2023-05-07T10:41:39;100053.19;;;30.26;38.21
6349;BME280;3207;42.648;23.406;2023-05-07T10:44:06;100024.06;;;30.68;37.72
6349;BME280;3207;42.648;23.406;2023-05-07T10:46:33;100027.06;;;30.54;36.85
6349;BME280;3207;42.648;23.406;2023-05-07T10:49:07;100018.03;;;30.77;36.60
6349;BME280;3207;42.648;23.406;2023-05-07T10:51:35;100022.34;;;30.62;37.23
6349;BME280;3207;42.648;23.406;2023-05-07T10:54:21;100027.81;;;29.98;38.12
6349;BME280;3207;42.648;23.406;2023-05-07T10:56:56;100019.38;;;29.60;38.82
6349;BME280;3207;42.648;23.406;2023-05-07T10:59:33;100019.38;;;29.71;38.78
6349;BME280;3207;42.648;23.406;2023-05-07T11:02:06;100005.81;;;29.43;38.64
6349;BME280;3207;42.648;23.406;2023-05-07T11:04:35;99992.66;;;29.23;39.58
6349;BME280;3207;42.648;23.406;2023-05-07T11:07:28;100016.78;;;29.30;39.82
6349;BME280;3207;42.648;23.406;2023-05-07T11:10:03;99990.13;;;29.40;38.98
6349;BME280;3207;42.648;23.406;2023-05-07T11:12:50;99998.88;;;29.47;39.09
6349;BME280;3207;42.648;23.406;2023-05-07T11:15:37;99989.97;;;29.70;38.43
6349;BME280;3207;42.648;23.406;2023-05-07T11:18:05;99997.56;;;29.96;37.68
6349;BME280;3207;42.648;23.406;2023-05-07T11:20:54;99996.56;;;30.14;36.49
6349;BME280;3207;42.648;23.406;2023-05-07T11:23:56;99997.53;;;30.08;36.54
6349;BME280;3207;42.648;23.406;2023-05-07T11:26:27;99953.69;;;30.01;36.58
6349;BME280;3207;42.648;23.406;2023-05-07T11:28:55;100007.56;;;30.24;36.73
6349;BME280;3207;42.648;23.406;2023-05-07T11:31:24;99994.69;;;30.43;36.22
6349;BME280;3207;42.648;23.406;2023-05-07T11:33:55;99993.75;;;30.49;36.19
6349;BME280;3207;42.648;23.406;2023-05-07T11:36:23;99982.53;;;30.69;34.44
6349;BME280;3207;42.648;23.406;2023-05-07T11:38:50;99982.81;;;30.55;34.17
6349;BME280;3207;42.648;23.406;2023-05-07T11:41:17;99994.94;;;30.13;33.91
6349;BME280;3207;42.648;23.406;2023-05-07T11:43:57;99987.03;;;30.51;33.84
6349;BME280;3207;42.648;23.406;2023-05-07T11:46:26;100009.22;;;30.82;33.02
6349;BME280;3207;42.648;23.406;2023-05-07T11:48:53;99994.69;;;30.54;33.66
6349;BME280;3207;42.648;23.406;2023-05-07T11:51:20;99975.66;;;30.78;34.30
6349;BME280;3207;42.648;23.406;2023-05-07T11:53:47;99980.56;;;30.81;33.67
6349;BME280;3207;42.648;23.406;2023-05-07T11:56:16;99960.41;;;31.05;32.76
6349;BME280;3207;42.648;23.406;2023-05-07T11:58:44;99978.09;;;30.96;32.58
6349;BME280;3207;42.648;23.406;2023-05-07T12:01:13;99978.28;;;30.89;32.18
6349;BME280;3207;42.648;23.406;2023-05-07T12:03:41;99985.31;;;30.90;32.03
6349;BME280;3207;42.648;23.406;2023-05-07T12:06:09;100005.75;;;30.86;31.26
6349;BME280;3207;42.648;23.406;2023-05-07T12:08:38;99958.97;;;30.81;30.80
6349;BME280;3207;42.648;23.406;2023-05-07T12:11:07;99975.66;;;30.78;31.19
6349;BME280;3207;42.648;23.406;2023-05-07T12:13:35;99972.69;;;30.63;31.37
6349;BME280;3207;42.648;23.406;2023-05-07T12:16:02;99983.59;;;30.39;31.17
6349;BME280;3207;42.648;23.406;2023-05-07T12:18:30;99961.56;;;29.91;31.83
6349;BME280;3207;42.648;23.406;2023-05-07T12:20:57;99966.72;;;30.04;32.36
6349;BME280;3207;42.648;23.406;2023-05-07T12:23:25;99952.78;;;29.83;32.83
6349;BME280;3207;42.648;23.406;2023-05-07T12:25:53;99961.53;;;29.39;33.45
6349;BME280;3207;42.648;23.406;2023-05-07T12:28:19;99929.03;;;29.69;32.53
6349;BME280;3207;42.648;23.406;2023-05-07T12:30:48;99961.09;;;30.05;32.18
6349;BME280;3207;42.648;23.406;2023-05-07T12:33:16;99948.47;;;29.71;32.00
6349;BME280;3207;42.648;23.406;2023-05-07T12:35:50;99953.81;;;29.94;31.74
6349;BME280;3207;42.648;23.406;2023-05-07T12:38:19;99938.72;;;30.21;31.18
6349;BME280;3207;42.648;23.406;2023-05-07T12:40:47;99948.56;;;30.28;30.92
6349;BME280;3207;42.648;23.406;2023-05-07T12:43:25;99938.97;;;30.48;31.76
6349;BME280;3207;42.648;23.406;2023-05-07T12:45:54;99892.16;;;30.26;31.15
6349;BME280;3207;42.648;23.406;2023-05-07T12:48:22;99941.84;;;30.30;31.98
6349;BME280;3207;42.648;23.406;2023-05-07T12:50:50;99939.59;;;30.39;31.44
6349;BME280;3207;42.648;23.406;2023-05-07T12:53:20;99944.94;;;30.22;32.29
6349;BME280;3207;42.648;23.406;2023-05-07T12:55:48;99949.63;;;29.98;32.81
6349;BME280;3207;42.648;23.406;2023-05-07T12:58:16;99929.28;;;30.36;32.88
6349;BME280;3207;42.648;23.406;2023-05-07T13:00:44;99928.03;;;30.55;32.36
6349;BME280;3207;42.648;23.406;2023-05-07T13:03:11;99926.97;;;30.28;33.00
6349;BME280;3207;42.648;23.406;2023-05-07T13:05:38;99933.72;;;30.13;33.11
6349;BME280;3207;42.648;23.406;2023-05-07T13:08:07;99906.41;;;30.10;33.41
6349;BME280;3207;42.648;23.406;2023-05-07T13:10:35;99908.69;;;30.30;33.64
6349;BME280;3207;42.648;23.406;2023-05-07T13:13:01;99912.94;;;30.42;33.21